Time;durP1;ratioP1;P1;durP2;ratioP2;P2;SDS_P1;SDS_P2;PMS_P1;PMS_P2;Temp;Humidity;BMP_temperature;BMP_pressure;BME280_temperature;BME280_humidity;BME280_pressure;Samples;Min_cycle;Max_cycle;Signal;HPM_P1;HPM_P2
2022/04/12 00:00:12;;;;;;;3.10;2.27;;;;;;;-0.50;100.00;101242.34;5013227;28;20064;-78
2022/04/12 00:02:45;;;;;;;3.87;2.83;;;;;;;-0.57;100.00;101247.31;5000814;28;20064;-78
2022/04/12 00:05:12;;;;;;;4.70;2.80;;;;;;;-0.62;100.00;101242.78;4996480;28;20042;-78
2022/04/12 00:07:58;;;;;;;6.27;2.93;;;;;;;-0.74;100.00;101251.03;5037373;28;20049;-78
2022/04/12 00:10:25;;;;;;;4.27;2.70;;;;;;;-0.77;100.00;101248.31;5004327;28;20044;-78
2022/04/12 00:12:52;;;;;;;5.97;3.10;;;;;;;-0.82;100.00;101247.31;5016039;28;20045;-79
2022/04/12 00:15:19;;;;;;;4.90;2.90;;;;;;;-0.97;100.00;101249.34;5036409;28;20048;-78
2022/04/12 00:20:31;;;;;;;7.90;3.80;;;;;;;-1.00;100.00;101246.66;5012578;28;20045;-78
2022/04/12 00:22:59;;;;;;;4.87;3.23;;;;;;;-1.09;100.00;101255.00;5021353;28;20064;-78
2022/04/12 00:25:27;;;;;;;4.50;2.63;;;;;;;-1.04;100.00;101250.84;5024702;28;20033;-78
2022/04/12 00:27:55;;;;;;;4.80;3.30;;;;;;;-0.97;100.00;101259.72;4999119;28;20037;-78
2022/04/12 00:30:23;;;;;;;5.17;3.30;;;;;;;-0.97;100.00;101259.72;5022938;28;20033;-78
2022/04/12 00:32:52;;;;;;;5.77;3.63;;;;;;;-0.92;100.00;101253.88;5027581;28;20045;-78
2022/04/12 00:35:20;;;;;;;9.17;4.00;;;;;;;-0.93;100.00;101257.28;5021421;22;20437;-75
2022/04/12 00:37:47;;;;;;;4.17;3.40;;;;;;;-1.03;100.00;101246.53;4985944;28;20035;-76
2022/04/12 00:40:17;;;;;;;6.00;3.90;;;;;;;-0.99;100.00;101251.00;4984381;28;20045;-75
2022/04/12 00:42:45;;;;;;;8.77;4.77;;;;;;;-0.94;100.00;101246.84;5006621;28;20049;-76
2022/04/12 00:45:12;;;;;;;5.17;3.70;;;;;;;-1.05;100.00;101237.81;4990431;28;20034;-76
2022/04/12 00:47:39;;;;;;;5.87;3.90;;;;;;;-1.06;100.00;101247.31;4991696;28;20038;-76
2022/04/12 00:50:08;;;;;;;7.03;5.03;;;;;;;-1.07;100.00;101255.91;5004711;28;20046;-76
2022/04/12 00:52:36;;;;;;;4.87;3.53;;;;;;;-1.11;100.00;101246.25;4991905;28;20585;-76
2022/04/12 00:55:06;;;;;;;5.73;3.63;;;;;;;-1.09;100.00;101251.47;5008618;28;20042;-76
2022/04/12 00:57:33;;;;;;;5.07;3.93;;;;;;;-1.07;100.00;101239.47;5005521;28;20030;-76
2022/04/12 01:00:00;;;;;;;5.63;3.57;;;;;;;-1.05;100.00;101243.88;4970369;28;20042;-76
2022/04/12 01:02:27;;;;;;;6.73;4.27;;;;;;;-1.07;100.00;101252.44;5006749;28;20103;-76
2022/04/12 01:04:54;;;;;;;6.03;3.97;;;;;;;-1.17;100.00;101248.66;4993402;28;20048;-76
2022/04/12 01:07:20;;;;;;;5.73;3.80;;;;;;;-1.17;100.00;101251.25;4991704;28;20034;-76
2022/04/12 01:09:47;;;;;;;6.67;3.93;;;;;;;-1.11;100.00;101247.97;4990916;28;20049;-75
2022/04/12 01:12:18;;;;;;;5.63;3.77;;;;;;;-1.23;100.00;101244.09;4976033;28;20491;-75
2022/04/12 01:14:44;;;;;;;4.87;3.83;;;;;;;-1.27;100.00;101247.41;4992548;28;20495;-74
2022/04/12 01:17:12;;;;;;;5.20;3.27;;;;;;;-1.30;100.00;101243.81;5014592;28;20041;-75
2022/04/12 01:19:38;;;;;;;6.63;3.97;;;;;;;-1.31;100.00;101245.53;5002202;28;20514;-76
2022/04/12 01:22:06;;;;;;;5.63;3.30;;;;;;;-1.27;100.00;101243.94;5006143;28;20037;-75
2022/04/12 01:24:33;;;;;;;5.93;3.80;;;;;;;-1.22;100.00;101251.06;5025556;28;20634;-75
2022/04/12 01:27:01;;;;;;;5.00;4.00;;;;;;;-1.27;100.00;101236.16;4977026;28;20091;-75
2022/04/12 01:29:33;;;;;;;9.07;4.37;;;;;;;-1.29;100.00;101243.88;4992839;28;20042;-75
2022/04/12 01:32:01;;;;;;;6.30;4.03;;;;;;;-1.33;100.00;101244.59;4999856;28;20038;-76
2022/04/12 01:34:28;;;;;;;7.17;3.93;;;;;;;-1.30;100.00;101239.53;5008315;28;20049;-75
2022/04/12 01:36:55;;;;;;;6.90;4.20;;;;;;;-1.23;100.00;101243.22;5003919;28;20461;-75
2022/04/12 01:39:21;;;;;;;10.93;4.30;;;;;;;-1.19;100.00;101245.09;4990942;28;20042;-76
2022/04/12 01:41:48;;;;;;;7.13;3.50;;;;;;;-1.26;100.00;101235.31;4983582;28;20121;-75
2022/04/12 01:44:15;;;;;;;7.33;4.23;;;;;;;-1.34;100.00;101236.78;4980280;28;20053;-75
2022/04/12 01:46:41;;;;;;;8.20;4.20;;;;;;;-1.43;100.00;101242.47;4988501;28;20042;-75
2022/04/12 01:49:08;;;;;;;6.97;3.77;;;;;;;-1.50;100.00;101246.56;4972810;28;20048;-75
2022/04/12 01:51:35;;;;;;;5.57;4.10;;;;;;;-1.51;100.00;101242.22;4987545;28;20111;-76
2022/04/12 01:54:01;;;;;;;4.97;3.73;;;;;;;-1.42;100.00;101245.16;4974842;28;20442;-75
2022/04/12 01:56:28;;;;;;;7.67;4.27;;;;;;;-1.43;100.00;101242.47;5001591;28;21268;-75
2022/04/12 01:58:56;;;;;;;5.67;3.77;;;;;;;-1.43;100.00;101242.47;4997682;28;20038;-75
2022/04/12 02:01:22;;;;;;;5.93;3.77;;;;;;;-1.44;100.00;101244.19;5005666;28;20034;-76
2022/04/12 02:03:49;;;;;;;6.30;3.90;;;;;;;-1.44;100.00;101241.59;4989156;28;20049;-75
2022/04/12 02:06:16;;;;;;;6.40;4.00;;;;;;;-1.41;100.00;101238.25;5006154;28;20430;-75
2022/04/12 02:08:43;;;;;;;8.53;4.03;;;;;;;-1.45;100.00;101228.59;5009127;28;20067;-75
2022/04/12 02:11:10;;;;;;;8.43;3.80;;;;;;;-1.60;100.00;101230.59;5004309;28;20977;-76
2022/04/12 02:13:38;;;;;;;7.03;4.03;;;;;;;-1.67;100.00;101239.88;5005940;28;20047;-75
2022/04/12 02:16:05;;;;;;;8.20;3.77;;;;;;;-1.64;100.00;101244.28;4987923;28;20041;-77
2022/04/12 02:18:31;;;;;;;5.40;3.63;;;;;;;-1.60;100.00;101238.38;4988565;28;20093;-75
2022/04/12 02:20:58;;;;;;;6.80;3.67;;;;;;;-1.52;100.00;101234.38;4979796;28;20046;-76
2022/04/12 02:23:25;;;;;;;6.27;3.90;;;;;;;-1.49;100.00;101231.91;5006791;28;20423;-75
2022/04/12 02:25:51;;;;;;;8.67;3.97;;;;;;;-1.57;100.00;101230.72;4999424;28;20724;-75
2022/04/12 02:28:18;;;;;;;7.17;4.27;;;;;;;-1.65;100.00;101233.03;5007500;28;20038;-75
2022/04/12 02:30:45;;;;;;;6.30;4.23;;;;;;;-1.77;100.00;101228.25;5004254;28;20050;-75
2022/04/12 02:33:12;;;;;;;8.17;4.70;;;;;;;-1.69;100.00;101231.13;5000767;28;20038;-77
2022/04/12 02:35:38;;;;;;;5.70;4.00;;;;;;;-1.57;100.00;101231.63;5004319;28;20132;-77
2022/04/12 02:38:05;;;;;;;7.17;3.67;;;;;;;-1.56;100.00;101219.53;4992277;28;20038;-77
2022/04/12 02:40:32;;;;;;;5.60;3.73;;;;;;;-1.61;100.00;101213.28;5004236;28;20039;-77
2022/04/12 02:42:59;;;;;;;5.13;4.03;;;;;;;-1.67;100.00;101216.56;4982803;28;20055;-77
2022/04/12 02:45:25;;;;;;;7.23;3.90;;;;;;;-1.67;100.00;101216.56;4998738;28;20511;-76
2022/04/12 02:47:52;;;;;;;6.67;4.50;;;;;;;-1.62;100.00;101217.59;5008175;28;20034;-77
2022/04/12 02:50:18;;;;;;;8.53;3.97;;;;;;;-1.63;100.00;101221.00;4991771;28;20049;-77
2022/04/12 02:52:45;;;;;;;6.90;4.07;;;;;;;-1.70;100.00;101209.53;4986085;28;20057;-77
2022/04/12 02:55:12;;;;;;;5.50;4.13;;;;;;;-1.74;100.00;101212.84;5001493;28;20042;-76
2022/04/12 02:57:39;;;;;;;4.50;3.60;;;;;;;-1.83;100.00;101217.69;4983080;28;20469;-77
2022/04/12 03:00:06;;;;;;;7.80;4.50;;;;;;;-1.85;100.00;101214.16;4968556;28;20517;-76
2022/04/12 03:02:33;;;;;;;5.20;3.60;;;;;;;-1.87;100.00;101212.31;4990570;28;20041;-76
2022/04/12 03:05:00;;;;;;;6.93;3.77;;;;;;;-1.83;100.00;101209.03;5001808;28;20077;-76
2022/04/12 03:07:26;;;;;;;5.60;3.60;;;;;;;-1.81;100.00;101210.84;4986468;28;20089;-77
2022/04/12 03:09:53;;;;;;;8.03;3.97;;;;;;;-1.77;100.00;101211.81;4975116;28;20120;-76
2022/04/12 03:12:20;;;;;;;7.33;4.03;;;;;;;-1.83;100.00;101206.44;4986769;28;20069;-76
2022/04/12 03:14:46;;;;;;;8.73;4.60;;;;;;;-1.82;100.00;101211.66;4993662;28;20042;-76
2022/04/12 03:17:15;;;;;;;7.50;4.80;;;;;;;-1.81;100.00;101210.84;5005209;28;20038;-76
2022/04/12 03:19:41;;;;;;;6.90;4.23;;;;;;;-1.88;100.00;101213.13;5002392;28;20046;-76
2022/04/12 03:22:08;;;;;;;7.53;4.60;;;;;;;-1.90;100.00;101214.78;4973437;28;20042;-75
2022/04/12 03:24:36;;;;;;;6.90;4.60;;;;;;;-1.98;100.00;101207.59;4988879;28;20050;-76
2022/04/12 03:27:03;;;;;;;6.97;4.50;;;;;;;-1.94;100.00;101218.06;4974406;28;20065;-76
2022/04/12 03:29:29;;;;;;;5.83;3.70;;;;;;;-1.96;100.00;101225.78;4971068;28;20042;-77
2022/04/12 03:31:56;;;;;;;6.77;4.03;;;;;;;-2.00;100.00;101229.09;4989912;28;20033;-76
2022/04/12 03:34:23;;;;;;;12.23;4.43;;;;;;;-1.99;100.00;101236.03;4989440;28;20038;-77
2022/04/12 03:36:49;;;;;;;5.93;3.90;;;;;;;-1.94;100.00;101233.59;5004698;28;20046;-77
2022/04/12 03:39:17;;;;;;;6.63;3.70;;;;;;;-1.99;100.00;101231.72;5001965;28;20665;-76
2022/04/12 03:41:46;;;;;;;5.80;4.17;;;;;;;-1.99;100.00;101225.69;5005410;28;20049;-76
2022/04/12 03:44:13;;;;;;;6.63;3.80;;;;;;;-1.96;100.00;101235.25;4989229;28;20038;-75
2022/04/12 03:46:45;;;;;;;8.17;4.07;;;;;;;-1.99;100.00;101230.84;4989003;28;20046;-75
2022/04/12 03:49:12;;;;;;;8.97;4.77;;;;;;;-2.00;100.00;101237.75;5000756;28;20045;-75
2022/04/12 03:51:39;;;;;;;7.00;4.90;;;;;;;-1.93;100.00;101235.38;5012257;28;20152;-76
2022/04/12 03:54:05;;;;;;;7.30;4.53;;;;;;;-1.89;100.00;101229.50;4991221;28;20042;-77
2022/04/12 03:56:32;;;;;;;5.97;3.93;;;;;;;-1.92;100.00;101240.63;4975500;28;20038;-75
2022/04/12 03:58:59;;;;;;;7.07;4.43;;;;;;;-2.02;100.00;101241.97;5010418;28;20063;-77
2022/04/12 04:01:27;;;;;;;6.67;4.30;;;;;;;-2.16;100.00;101248.31;4993469;28;20736;-77
2022/04/12 04:03:54;;;;;;;8.83;4.47;;;;;;;-2.12;100.00;101241.53;4987706;28;20106;-77
2022/04/12 04:06:21;;;;;;;7.50;4.80;;;;;;;-2.02;100.00;101239.41;4978006;28;20072;-76
2022/04/12 04:08:48;;;;;;;6.03;4.40;;;;;;;-1.99;100.00;101238.63;4993148;28;20038;-77
2022/04/12 04:11:15;;;;;;;6.27;4.27;;;;;;;-2.02;100.00;101246.25;4999641;28;20065;-75
2022/04/12 04:13:41;;;;;;;14.40;4.63;;;;;;;-2.09;100.00;101241.69;4991746;28;20491;-76
2022/04/12 04:16:09;;;;;;;7.67;4.83;;;;;;;-2.07;100.00;101238.31;4980836;28;20041;-77
2022/04/12 04:18:36;;;;;;;6.73;4.07;;;;;;;-2.00;100.00;101240.31;5012251;28;20042;-77
2022/04/12 04:21:03;;;;;;;9.67;4.37;;;;;;;-2.13;100.00;101242.34;4994946;28;20049;-77
2022/04/12 04:23:30;;;;;;;7.53;4.10;;;;;;;-2.07;100.00;101234.84;5009540;28;20060;-77
2022/04/12 04:25:56;;;;;;;7.13;4.10;;;;;;;-2.05;100.00;101235.78;4986527;28;20042;-76
2022/04/12 04:28:23;;;;;;;7.77;4.37;;;;;;;-1.94;100.00;101231.91;5007981;28;20042;-76
2022/04/12 04:30:50;;;;;;;6.00;4.00;;;;;;;-1.98;100.00;101232.63;4978630;28;20077;-76
2022/04/12 04:33:17;;;;;;;8.80;5.53;;;;;;;-2.04;100.00;101230.66;4974418;28;20050;-77
2022/04/12 04:35:45;;;;;;;5.13;4.20;;;;;;;-2.08;100.00;101231.38;5009773;28;20038;-77
2022/04/12 04:38:12;;;;;;;9.67;4.67;;;;;;;-2.03;100.00;101231.53;4979784;28;20038;-76
2022/04/12 04:40:39;;;;;;;7.73;4.13;;;;;;;-2.11;100.00;101231.22;5020596;28;20044;-78
2022/04/12 04:43:07;;;;;;;8.93;5.50;;;;;;;-2.04;100.00;101233.25;4991128;28;20046;-74
2022/04/12 04:45:34;;;;;;;7.83;4.80;;;;;;;-2.03;100.00;101237.59;4977262;28;20045;-76
2022/04/12 04:48:03;;;;;;;5.43;3.87;;;;;;;-1.95;100.00;101234.44;5008054;28;20479;-78
2022/04/12 04:50:32;;;;;;;7.40;4.67;;;;;;;-1.94;100.00;101220.66;4992861;28;20038;-77
2022/04/12 04:53:02;;;;;;;5.03;4.07;;;;;;;-1.93;100.00;101225.94;4978156;28;20137;-77
2022/04/12 04:55:29;;;;;;;7.30;4.10;;;;;;;-1.95;100.00;101235.31;4977784;28;20038;-77
2022/04/12 04:57:57;;;;;;;7.90;4.30;;;;;;;-1.80;100.00;101233.31;4994956;28;20038;-77
2022/04/12 05:00:26;;;;;;;6.10;4.17;;;;;;;-1.70;100.00;101225.06;5003092;28;20045;-75
2022/04/12 05:02:54;;;;;;;4.73;3.53;;;;;;;-1.72;100.00;101236.22;4992506;28;20042;-76
2022/04/12 05:05:21;;;;;;;8.00;4.57;;;;;;;-1.64;100.00;101241.69;4972183;28;20561;-75
2022/04/12 05:07:52;;;;;;;7.50;4.23;;;;;;;-1.47;100.00;101245.78;4978028;28;20056;-77
2022/04/12 05:10:31;;;;;;;7.47;4.27;;;;;;;-1.52;100.00;101247.31;4986778;28;20522;-75
2022/04/12 05:13:00;;;;;;;5.97;3.97;;;;;;;-1.47;100.00;101254.44;5005133;28;20042;-76
2022/04/12 05:15:29;;;;;;;6.23;4.10;;;;;;;-1.51;100.00;101256.88;4977053;28;20126;-76
2022/04/12 05:18:01;;;;;;;5.43;4.00;;;;;;;-1.53;100.00;101259.38;4994494;28;20038;-77
2022/04/12 05:20:28;;;;;;;6.20;4.23;;;;;;;-1.40;100.00;101265.06;4976100;28;20045;-76
2022/04/12 05:22:54;;;;;;;8.47;4.50;;;;;;;-1.43;100.00;101266.72;5000943;28;20113;-75
2022/04/12 05:25:21;;;;;;;6.53;4.30;;;;;;;-1.35;100.00;101260.91;5002872;28;20040;-77
2022/04/12 05:27:49;;;;;;;7.53;4.43;;;;;;;-1.42;100.00;101265.88;5007300;28;20066;-77
2022/04/12 05:30:16;;;;;;;8.17;4.87;;;;;;;-1.29;100.00;101274.97;4993092;28;20056;-76
2022/04/12 05:32:43;;;;;;;6.93;3.87;;;;;;;-1.28;100.00;101271.56;4989833;28;20661;-76
2022/04/12 05:35:11;;;;;;;6.87;4.70;;;;;;;-1.32;100.00;101272.28;4989851;28;20534;-78
2022/04/12 05:37:45;;;;;;;5.53;4.17;;;;;;;-1.26;100.00;101269.94;4977495;28;21681;-78
2022/04/12 05:40:12;;;;;;;;;;;;;;;-1.17;100.00;101267.69;5010027;28;20041;-77
2022/04/12 05:42:39;;;;;;;7.17;4.03;;;;;;;-1.07;100.00;101276.66;4981768;28;20346;-77
2022/04/12 05:45:07;;;;;;;7.10;4.17;;;;;;;-1.00;100.00;101276.06;5006425;28;20049;-76
2022/04/12 05:47:51;;;;;;;7.53;4.67;;;;;;;-0.94;100.00;101284.03;4987589;28;20041;-77
2022/04/12 05:50:19;;;;;;;6.30;4.13;;;;;;;-0.98;100.00;101282.19;5018173;28;20236;-75
2022/04/12 05:52:47;;;;;;;7.17;4.17;;;;;;;-0.97;100.00;101288.25;4993742;28;20056;-77
2022/04/12 05:55:15;;;;;;;7.00;4.47;;;;;;;-0.84;100.00;101282.69;4988709;28;20045;-75
2022/04/12 05:57:59;;;;;;;8.80;4.60;;;;;;;-0.79;100.00;101288.03;4994128;28;20415;-77
2022/04/12 06:00:31;;;;;;;6.38;4.47;;;;;;;-0.69;100.00;101290.09;4992918;28;20129;-75
2022/04/12 06:02:58;;;;;;;7.87;4.33;;;;;;;-0.64;100.00;101289.44;4991798;28;20042;-75
2022/04/12 06:05:29;;;;;;;6.03;4.60;;;;;;;-0.55;100.00;101288.88;5003993;28;20691;-77
2022/04/12 06:07:56;;;;;;;9.87;5.90;;;;;;;-0.37;100.00;101284.31;5008759;28;20041;-77
2022/04/12 06:10:25;;;;;;;6.73;3.53;;;;;;;-0.35;100.00;101297.34;5002880;28;20077;-75
2022/04/12 06:13:00;;;;;;;8.97;4.53;;;;;;;-0.12;100.00;101293.78;4983010;28;20042;-75
2022/04/12 06:15:28;;;;;;;11.47;6.37;;;;;;;0.43;100.00;101290.38;5008650;28;20061;-77
2022/04/12 06:17:54;;;;;;;4.93;3.37;;;;;;;0.27;100.00;101295.91;4975994;28;20042;-75
2022/04/12 06:20:21;;;;;;;4.60;3.50;;;;;;;0.35;100.00;101289.25;4995867;28;20045;-77
2022/04/12 06:22:48;;;;;;;8.17;4.27;;;;;;;0.50;100.00;101289.69;5005024;28;20050;-77
2022/04/12 06:25:16;;;;;;;6.63;4.67;;;;;;;0.74;100.00;101293.88;4991721;28;20050;-76
2022/04/12 06:27:46;;;;;;;6.67;3.90;;;;;;;1.09;100.00;101293.19;4989364;28;20056;-77
2022/04/12 06:30:15;;;;;;;8.60;3.17;;;;;;;2.49;100.00;101292.34;4989649;28;20048;-75
2022/04/12 06:32:43;;;;;;;4.83;3.13;;;;;;;3.91;100.00;101287.28;4990788;28;20082;-77
2022/04/12 06:35:10;;;;;;;5.17;3.10;;;;;;;5.63;90.65;101296.53;4976345;28;20041;-77
2022/04/12 06:37:39;;;;;;;5.50;3.80;;;;;;;6.42;83.90;101293.75;4991699;28;20050;-75
2022/04/12 06:40:08;;;;;;;5.47;4.03;;;;;;;7.70;74.62;101280.25;4991356;28;20049;-77
2022/04/12 06:42:35;;;;;;;4.67;2.93;;;;;;;8.29;72.06;101280.25;4991237;28;20573;-76
2022/04/12 06:45:06;;;;;;;5.43;3.63;;;;;;;8.63;66.69;101290.75;4995393;28;20045;-75
2022/04/12 06:47:33;;;;;;;4.35;3.03;;;;;;;8.64;68.29;101298.63;4992084;28;20060;-77
2022/04/12 06:50:00;;;;;;;5.88;3.92;;;;;;;9.13;60.50;101292.34;5005153;28;20546;-77
2022/04/12 06:52:27;;;;;;;5.88;3.95;;;;;;;9.48;60.34;101297.41;4988231;28;20042;-76
2022/04/12 06:54:54;;;;;;;7.20;4.10;;;;;;;9.13;60.35;101298.47;4974472;28;20057;-76
2022/04/12 06:57:20;;;;;;;6.05;4.47;;;;;;;9.75;61.23;101296.34;4986690;28;20041;-76
2022/04/12 06:59:47;;;;;;;9.45;4.70;;;;;;;9.31;59.61;101297.50;5007600;28;20029;-77
2022/04/12 07:02:14;;;;;;;6.40;3.88;;;;;;;10.28;61.08;101298.63;4991733;28;20038;-76
2022/04/12 07:04:40;;;;;;;6.35;3.88;;;;;;;10.39;62.01;101299.38;4990061;28;20054;-77
2022/04/12 07:07:07;;;;;;;5.25;4.05;;;;;;;10.54;61.29;101302.78;4989842;28;20093;-77
2022/04/12 07:09:34;;;;;;;8.20;3.75;;;;;;;9.96;58.28;101297.97;5003261;28;20492;-76
2022/04/12 07:12:02;;;;;;;5.78;3.72;;;;;;;10.08;59.48;101303.16;5007230;28;20034;-76
2022/04/12 07:14:29;;;;;;;6.10;4.30;;;;;;;10.23;58.19;101302.19;5005302;28;20038;-77
2022/04/12 07:16:56;;;;;;;7.03;4.00;;;;;;;10.38;61.36;101302.06;4985102;28;20049;-82
2022/04/12 07:19:24;;;;;;;4.20;3.60;;;;;;;10.62;59.48;101308.88;4987922;28;20038;-77
2022/04/12 07:21:51;;;;;;;6.57;4.57;;;;;;;10.80;57.98;101306.03;4983367;28;20045;-77
2022/04/12 07:24:18;;;;;;;7.47;4.28;;;;;;;10.40;57.55;101306.41;5003094;28;20038;-78
2022/04/12 07:26:45;;;;;;;5.00;3.65;;;;;;;10.48;59.76;101301.06;5003652;28;20042;-79
2022/04/12 07:29:11;;;;;;;6.03;4.07;;;;;;;10.03;57.44;101310.25;4988012;28;20537;-78
2022/04/12 07:31:38;;;;;;;9.85;4.50;;;;;;;9.75;58.48;101305.19;5005554;28;20050;-77
2022/04/12 07:34:05;;;;;;;5.80;4.10;;;;;;;10.01;58.11;101305.00;5017211;28;20046;-78
2022/04/12 07:36:31;;;;;;;6.10;4.00;;;;;;;9.95;57.18;101309.44;4995996;28;20112;-78
2022/04/12 07:38:58;;;;;;;6.43;3.78;;;;;;;9.62;57.52;101319.31;5009630;28;20665;-79
2022/04/12 07:41:25;;;;;;;7.13;3.95;;;;;;;9.94;56.36;101315.59;5006693;28;20045;-78
2022/04/12 07:43:52;;;;;;;5.82;3.78;;;;;;;9.80;56.23;101318.31;4987172;28;20070;-78
2022/04/12 07:46:19;;;;;;;7.70;3.97;;;;;;;10.06;58.08;101324.28;4982687;28;20042;-77
2022/04/12 07:48:48;;;;;;;6.70;4.03;;;;;;;9.84;56.43;101320.06;5020756;28;20569;-78
2022/04/12 07:51:15;;;;;;;5.63;3.70;;;;;;;9.99;56.68;101319.94;4990010;28;20680;-78
2022/04/12 07:53:42;;;;;;;6.43;4.10;;;;;;;9.67;56.50;101316.63;4967942;28;20047;-78
2022/04/12 07:56:09;;;;;;;4.25;3.30;;;;;;;9.83;59.83;101313.00;5009704;28;20107;-77
2022/04/12 07:58:36;;;;;;;6.10;3.65;;;;;;;9.97;60.43;101318.22;5006165;28;20039;-77
2022/04/12 08:01:03;;;;;;;6.35;3.65;;;;;;;10.04;57.41;101318.16;5005825;28;20034;-78
2022/04/12 08:03:30;;;;;;;5.47;3.53;;;;;;;10.09;57.34;101305.81;5001087;28;20069;-77
2022/04/12 08:05:56;;;;;;;4.53;3.50;;;;;;;10.16;55.39;101319.81;4986005;28;20483;-77
2022/04/12 08:08:23;;;;;;;5.32;3.22;;;;;;;10.38;55.21;101310.84;5016554;28;20052;-77
2022/04/12 08:10:50;;;;;;;6.40;3.75;;;;;;;10.43;57.00;101311.69;4991518;28;20107;-77
2022/04/12 08:13:17;;;;;;;7.85;3.15;;;;;;;10.60;57.13;101315.94;4990637;28;20056;-77
2022/04/12 08:15:44;;;;;;;4.97;3.35;;;;;;;10.72;53.05;101307.88;4993792;28;20049;-76
2022/04/12 08:18:12;;;;;;;4.97;3.03;;;;;;;10.65;53.27;101314.09;5003954;28;20092;-78
2022/04/12 08:20:38;;;;;;;4.50;2.88;;;;;;;10.65;54.86;101314.97;5008882;28;20042;-77
2022/04/12 08:23:05;;;;;;;9.23;3.22;;;;;;;10.80;52.11;101313.94;5010595;28;20041;-78
2022/04/12 08:25:32;;;;;;;4.18;2.80;;;;;;;10.69;55.55;101316.72;5008147;28;20048;-77
2022/04/12 08:27:58;;;;;;;5.82;3.28;;;;;;;10.58;51.83;101312.41;4995244;28;20646;-77
2022/04/12 08:30:25;;;;;;;6.18;4.18;;;;;;;10.62;47.40;101315.03;4994175;28;20053;-76
2022/04/12 08:32:52;;;;;;;6.03;3.35;;;;;;;10.48;50.77;101316.91;4994317;28;20115;-77
2022/04/12 08:35:18;;;;;;;4.68;3.30;;;;;;;10.87;51.43;101313.00;5000072;28;20423;-77
2022/04/12 08:37:45;;;;;;;4.28;3.42;;;;;;;10.82;46.54;101319.22;4995648;28;20047;-76
2022/04/12 08:40:13;;;;;;;5.28;3.40;;;;;;;11.05;46.40;101301.31;5010011;28;20042;-78
2022/04/12 08:42:41;;;;;;;4.82;2.97;;;;;;;11.18;46.94;101302.94;4979114;28;20048;-78
2022/04/12 08:45:08;;;;;;;4.88;2.85;;;;;;;11.25;51.46;101304.59;5005798;28;20042;-77
2022/04/12 08:47:35;;;;;;;3.50;2.70;;;;;;;11.40;45.52;101310.56;5010505;28;20041;-78
2022/04/12 08:50:04;;;;;;;3.35;2.58;;;;;;;11.40;45.34;101300.88;4973334;28;20561;-78
2022/04/12 08:52:31;;;;;;;5.38;3.22;;;;;;;11.50;47.44;101305.13;5003108;28;20392;-77
2022/04/12 08:54:58;;;;;;;4.10;2.90;;;;;;;11.44;44.76;101299.06;4990113;28;20042;-77
2022/04/12 08:57:25;;;;;;;6.72;3.58;;;;;;;11.36;43.35;101299.16;4995354;28;20100;-78
2022/04/12 08:59:51;;;;;;;4.57;2.83;;;;;;;11.64;45.09;101291.72;4988912;28;20038;-76
2022/04/12 09:02:18;;;;;;;5.82;3.25;;;;;;;11.83;43.58;101285.25;4999342;28;20049;-78
2022/04/12 09:04:45;;;;;;;4.72;3.20;;;;;;;11.89;42.94;101286.06;4993562;28;20082;-77
2022/04/12 09:07:13;;;;;;;4.88;3.35;;;;;;;12.19;46.13;101284.69;5007685;28;20129;-77
2022/04/12 09:09:42;;;;;;;7.43;2.90;;;;;;;12.27;44.39;101290.72;5001034;28;20088;-77
2022/04/12 09:12:11;;;;;;;6.13;3.20;;;;;;;12.38;43.28;101281.69;4982921;28;20061;-78
2022/04/12 09:14:57;;;;;;;4.90;2.70;;;;;;;12.60;45.17;101279.50;5008880;28;20466;-75
2022/04/12 09:17:29;;;;;;;5.50;3.17;;;;;;;12.78;45.84;101283.63;4990860;28;20057;-77
2022/04/12 09:19:59;;;;;;;5.47;3.47;;;;;;;13.04;42.38;101282.22;4994234;28;20514;-77
2022/04/12 09:22:27;;;;;;;4.30;3.00;;;;;;;13.08;39.69;101279.44;4992684;28;20049;-78
2022/04/12 09:24:57;;;;;;;5.45;3.10;;;;;;;13.22;43.45;101284.50;4989518;28;20049;-79
2022/04/12 09:27:28;;;;;;;8.35;4.43;;;;;;;13.18;40.85;101281.00;4990489;28;20565;-77
2022/04/12 09:29:57;;;;;;;6.50;3.95;;;;;;;13.28;40.25;101296.75;5019752;28;20038;-77
2022/04/12 09:32:26;;;;;;;5.95;3.58;;;;;;;-144.87;100.00;56979.78;4994677;28;20756;-78
2022/04/12 09:34:54;;;;;;;5.55;3.97;;;;;;;12.81;nan;101280.88;4988810;28;20050;-76
2022/04/12 09:37:27;;;;;;;4.35;3.17;;;;;;;12.79;nan;101282.69;5084220;22;20037;-80
2022/04/12 09:40:00;;;;;;;5.28;3.45;;;;;;;12.90;nan;101279.81;5028828;28;20033;-83
2022/04/12 09:42:54;;;;;;;4.60;3.20;;;;;;;13.05;nan;101270.69;5029847;28;20045;-82
2022/04/12 09:45:23;;;;;;;4.72;3.42;;;;;;;13.11;nan;101276.72;5031885;28;20099;-81
2022/04/12 09:47:57;;;;;;;7.15;4.03;;;;;;;13.25;nan;101268.50;5025633;28;20148;-80
2022/04/12 09:50:44;;;;;;;4.75;3.53;;;;;;;13.57;nan;101274.88;5026600;28;20035;-82
2022/04/12 09:53:11;;;;;;;4.20;3.35;;;;;;;13.72;nan;101274.53;5041544;28;20047;-81
2022/04/12 09:55:43;;;;;;;5.65;3.70;;;;;;;13.76;nan;101271.75;5029554;28;20049;-80
2022/04/12 09:58:16;;;;;;;4.88;3.50;;;;;;;13.61;nan;101274.75;5015006;28;20036;-81
2022/04/12 10:00:47;;;;;;;6.78;4.07;;;;;;;13.83;nan;101277.78;5000104;28;20045;-80
2022/04/12 10:03:16;;;;;;;5.43;3.92;;;;;;;13.48;nan;101266.22;5063607;28;20043;-82
2022/04/12 10:05:44;;;;;;;5.05;4.32;;;;;;;13.47;nan;101260.97;5046629;28;20413;-83
2022/04/12 10:08:13;;;;;;;6.30;3.80;;;;;;;13.73;nan;101265.66;5032245;28;20547;-83
2022/04/12 10:10:42;;;;;;;5.55;3.45;;;;;;;14.14;nan;101258.44;5036291;28;20589;-84
2022/04/12 10:13:14;;;;;;;6.15;3.55;;;;;;;14.40;nan;101268.41;5035854;28;20033;-84
2022/04/12 10:15:41;;;;;;;7.38;3.65;;;;;;;14.43;nan;101253.22;5050123;28;20109;-88
2022/04/12 10:18:09;;;;;;;7.68;4.65;;;;;;;14.63;nan;101258.94;5016556;28;20116;-87
2022/04/12 10:20:37;;;;;;;4.35;3.42;;;;;;;14.67;nan;101254.38;5026340;28;20105;-85
2022/04/12 10:23:08;;;;;;;5.00;3.47;;;;;;;14.81;nan;101244.22;5035193;28;20100;-84
2022/04/12 10:25:35;;;;;;;7.47;4.00;;;;;;;14.99;nan;101253.47;5052426;28;20485;-82
2022/04/12 10:28:03;;;;;;;4.63;3.53;;;;;;;14.90;nan;101253.75;5034339;28;20028;-82
2022/04/12 10:30:31;;;;;;;6.72;3.42;;;;;;;14.68;nan;101241.97;5048785;28;20037;-81
2022/04/12 10:33:06;;;;;;;4.30;3.20;;;;;;;14.96;nan;101245.56;5036651;28;20037;-82
2022/04/12 10:35:46;;;;;;;6.18;3.80;;;;;;;14.97;nan;101244.66;5037195;28;20041;-82
2022/04/12 10:38:18;;;;;;;5.13;3.88;;;;;;;15.04;nan;101246.19;5056265;28;20690;-80
2022/04/12 10:40:51;;;;;;;6.32;3.85;;;;;;;14.91;nan;101242.19;5045359;28;20033;-81
2022/04/12 10:43:33;;;;;;;5.55;3.65;;;;;;;15.06;nan;101240.88;5028841;28;20037;-82
2022/04/12 10:46:06;;;;;;;6.75;4.30;;;;;;;15.05;nan;101240.00;5025610;28;20445;-85
2022/04/12 10:48:33;;;;;;;5.40;4.30;;;;;;;15.16;nan;101235.22;5045997;28;20063;-83
2022/04/12 10:51:03;;;;;;;6.07;4.32;;;;;;;14.86;nan;101226.34;5032216;28;20760;-82
2022/04/12 10:53:36;;;;;;;9.23;4.38;;;;;;;14.89;nan;101228.06;5060533;28;20037;-82
2022/04/12 10:56:04;;;;;;;5.38;4.15;;;;;;;15.12;nan;101217.56;5044147;28;20391;-81
2022/04/12 10:58:33;;;;;;;4.70;4.00;;;;;;;14.90;nan;101220.03;5030052;28;20405;-82
2022/04/12 11:01:00;;;;;;;6.03;5.10;;;;;;;15.06;nan;101217.78;5035745;28;20029;-82
2022/04/12 11:03:46;;;;;;;6.18;4.68;;;;;;;15.26;nan;101209.19;5035649;28;20048;-82
2022/04/12 11:06:26;;;;;;;10.25;4.28;;;;;;;15.48;nan;101212.03;5049520;28;20528;-79
2022/04/12 11:08:55;;;;;;;6.63;3.75;;;;;;;15.46;nan;101209.41;5036987;28;20045;-81
2022/04/12 11:11:28;;;;;;;5.47;3.58;;;;;;;15.42;nan;101210.44;5047451;28;20041;-83
2022/04/12 11:13:56;;;;;;;5.70;3.80;;;;;;;15.43;nan;101208.66;5028427;28;20051;-83
2022/04/12 11:16:26;;;;;;;5.55;3.70;;;;;;;15.58;nan;101202.84;5045681;28;20034;-79
2022/04/12 11:19:11;;;;;;;7.97;4.38;;;;;;;15.28;nan;101203.81;5043189;28;20053;-83
2022/04/12 11:21:59;;;;;;;5.32;4.10;;;;;;;14.82;nan;101219.38;5051638;28;20394;-83
2022/04/12 11:24:26;;;;;;;6.10;3.55;;;;;;;14.96;nan;101218.94;5051094;28;20041;-85
2022/04/12 11:27:04;;;;;;;4.75;3.97;;;;;;;14.95;nan;101216.34;5047803;28;20036;-80
2022/04/12 11:29:31;;;;;;;5.18;4.07;;;;;;;15.23;nan;101205.75;5050215;28;20045;-82
2022/04/12 11:31:58;;;;;;;6.72;4.22;;;;;;;14.88;nan;101202.34;5048710;28;20037;-83